sensor_id;sensor_type;location;lat;lon;timestamp;pressure;altitude;pressure_sealevel;temperature;humidity
12247;BME280;6186;52.022;4.692;2022-12-20T00:00:49;101362.31;;;9.65;100.00
12247;BME280;6186;52.022;4.692;2022-12-20T00:03:14;101368.38;;;9.70;100.00
12247;BME280;6186;52.022;4.692;2022-12-20T00:05:41;101363.16;;;9.67;100.00
12247;BME280;6186;52.022;4.692;2022-12-20T00:08:08;101366.63;;;9.70;100.00
12247;BME280;6186;52.022;4.692;2022-12-20T00:10:37;101367.50;;;9.71;100.00
12247;BME280;6186;52.022;4.692;2022-12-20T00:13:03;101361.31;;;9.72;100.00
12247;BME280;6186;52.022;4.692;2022-12-20T00:15:30;101370.97;;;9.73;100.00
12247;BME280;6186;52.022;4.692;2022-12-20T00:17:56;101371.78;;;9.75;100.00
12247;BME280;6186;52.022;4.692;2022-12-20T00:20:21;101351.59;;;9.77;100.00
12247;BME280;6186;52.022;4.692;2022-12-20T00:22:46;101363.84;;;9.79;100.00
12247;BME280;6186;52.022;4.692;2022-12-20T00:25:12;101367.34;;;9.81;100.00
12247;BME280;6186;52.022;4.692;2022-12-20T00:27:37;101361.19;;;9.84;100.00
12247;BME280;6186;52.022;4.692;2022-12-20T00:30:03;101366.44;;;9.84;100.00
12247;BME280;6186;52.022;4.692;2022-12-20T00:32:29;101361.13;;;9.87;100.00
12247;BME280;6186;52.022;4.692;2022-12-20T00:34:54;101368.13;;;9.88;100.00
12247;BME280;6186;52.022;4.692;2022-12-20T00:37:19;101368.13;;;9.88;100.00
12247;BME280;6186;52.022;4.692;2022-12-20T00:39:45;101362.81;;;9.91;100.00
12247;BME280;6186;52.022;4.692;2022-12-20T00:42:10;101349.63;;;9.94;100.00
12247;BME280;6186;52.022;4.692;2022-12-20T00:44:35;101349.63;;;9.95;100.00
12247;BME280;6186;52.022;4.692;2022-12-20T00:47:01;101340.78;;;9.98;100.00
12247;BME280;6186;52.022;4.692;2022-12-20T00:49:26;101339.00;;;10.00;100.00
12247;BME280;6186;52.022;4.692;2022-12-20T00:51:51;101332.00;;;10.00;100.00
12247;BME280;6186;52.022;4.692;2022-12-20T00:54:17;101318.81;;;10.02;100.00
12247;BME280;6186;52.022;4.692;2022-12-20T00:56:42;101318.88;;;9.99;100.00
12247;BME280;6186;52.022;4.692;2022-12-20T00:59:07;101318.75;;;10.06;100.00
12247;BME280;6186;52.022;4.692;2022-12-20T01:01:33;101320.47;;;10.07;100.00
12247;BME280;6186;52.022;4.692;2022-12-20T01:03:59;101317.88;;;10.10;100.00
12247;BME280;6186;52.022;4.692;2022-12-20T01:06:25;101307.31;;;10.12;100.00
12247;BME280;6186;52.022;4.692;2022-12-20T01:08:52;101296.81;;;10.10;100.00
12247;BME280;6186;52.022;4.692;2022-12-20T01:11:26;101292.41;;;10.12;100.00
12247;BME280;6186;52.022;4.692;2022-12-20T01:13:54;101284.47;;;10.14;100.00
12247;BME280;6186;52.022;4.692;2022-12-20T01:16:26;101281.88;;;10.12;100.00
12247;BME280;6186;52.022;4.692;2022-12-20T01:18:52;101296.72;;;10.15;100.00
12247;BME280;6186;52.022;4.692;2022-12-20T01:21:19;101289.78;;;10.11;100.00
12247;BME280;6186;52.022;4.692;2022-12-20T01:23:45;101299.34;;;10.15;100.00
12247;BME280;6186;52.022;4.692;2022-12-20T01:26:13;101286.22;;;10.13;100.00
12247;BME280;6186;52.022;4.692;2022-12-20T01:28:41;101273.06;;;10.15;100.00
12247;BME280;6186;52.022;4.692;2022-12-20T01:31:08;101282.69;;;10.16;100.00
12247;BME280;6186;52.022;4.692;2022-12-20T01:33:34;101281.00;;;10.12;100.00
12247;BME280;6186;52.022;4.692;2022-12-20T01:36:05;101291.44;;;10.16;100.00
12247;BME280;6186;52.022;4.692;2022-12-20T01:38:32;101292.31;;;10.17;100.00
12247;BME280;6186;52.022;4.692;2022-12-20T01:40:58;101278.31;;;10.15;100.00
12247;BME280;6186;52.022;4.692;2022-12-20T01:43:25;101277.44;;;10.14;100.00
12247;BME280;6186;52.022;4.692;2022-12-20T01:45:51;101275.72;;;10.13;100.00
12247;BME280;6186;52.022;4.692;2022-12-20T01:48:24;101264.38;;;10.10;100.00
12247;BME280;6186;52.022;4.692;2022-12-20T01:50:52;101255.66;;;10.05;100.00
12247;BME280;6186;52.022;4.692;2022-12-20T01:53:19;101259.97;;;10.09;100.00
12247;BME280;6186;52.022;4.692;2022-12-20T01:55:46;101261.75;;;10.08;100.00
12247;BME280;6186;52.022;4.692;2022-12-20T01:58:13;101265.25;;;10.07;100.00
12247;BME280;6186;52.022;4.692;2022-12-20T02:00:40;101254.72;;;10.07;100.00
12247;BME280;6186;52.022;4.692;2022-12-20T02:03:09;101250.44;;;10.02;100.00
12247;BME280;6186;52.022;4.692;2022-12-20T02:05:38;101247.81;;;10.02;100.00
12247;BME280;6186;52.022;4.692;2022-12-20T02:08:05;101261.78;;;10.05;100.00
12247;BME280;6186;52.022;4.692;2022-12-20T02:16:00;101256.47;;;10.08;100.00
12247;BME280;6186;52.022;4.692;2022-12-20T02:21:38;101256.50;;;10.05;100.00
12247;BME280;6186;52.022;4.692;2022-12-20T02:29:39;101267.00;;;10.07;100.00
12247;BME280;6186;52.022;4.692;2022-12-20T02:34:38;101259.97;;;10.09;100.00
12247;BME280;6186;52.022;4.692;2022-12-20T02:37:03;101248.63;;;10.05;100.00
12247;BME280;6186;52.022;4.692;2022-12-20T02:39:30;101257.31;;;10.09;100.00
12247;BME280;6186;52.022;4.692;2022-12-20T02:42:00;101256.50;;;10.10;100.00
12247;BME280;6186;52.022;4.692;2022-12-20T02:44:29;101251.22;;;10.10;100.00
12247;BME280;6186;52.022;4.692;2022-12-20T02:47:27;101244.19;;;10.09;100.00
12247;BME280;6186;52.022;4.692;2022-12-20T02:49:55;101244.22;;;10.07;100.00
12247;BME280;6186;52.022;4.692;2022-12-20T02:52:23;101238.06;;;10.10;100.00
12247;BME280;6186;52.022;4.692;2022-12-20T02:54:52;101248.59;;;10.10;100.00
12247;BME280;6186;52.022;4.692;2022-12-20T02:57:22;101242.47;;;10.09;100.00
12247;BME280;6186;52.022;4.692;2022-12-20T02:59:57;101238.06;;;10.10;100.00
12247;BME280;6186;52.022;4.692;2022-12-20T03:02:26;101241.56;;;10.09;100.00
12247;BME280;6186;52.022;4.692;2022-12-20T03:04:53;101238.06;;;10.07;100.00
12247;BME280;6186;52.022;4.692;2022-12-20T03:07:18;101236.28;;;10.09;100.00
12247;BME280;6186;52.022;4.692;2022-12-20T03:09:44;101229.38;;;10.05;100.00
12247;BME280;6186;52.022;4.692;2022-12-20T03:12:10;101236.34;;;10.06;100.00
12247;BME280;6186;52.022;4.692;2022-12-20T03:14:37;101245.16;;;10.03;100.00
12247;BME280;6186;52.022;4.692;2022-12-20T03:17:03;101239.03;;;10.01;100.00
12247;BME280;6186;52.022;4.692;2022-12-20T03:19:29;101232.13;;;9.96;100.00
12247;BME280;6186;52.022;4.692;2022-12-20T03:21:55;101238.28;;;9.95;100.00
12247;BME280;6186;52.022;4.692;2022-12-20T03:24:21;101231.31;;;9.92;100.00
12247;BME280;6186;52.022;4.692;2022-12-20T03:26:46;101213.00;;;9.86;100.00
12247;BME280;6186;52.022;4.692;2022-12-20T03:29:11;101234.03;;;9.88;100.00
12247;BME280;6186;52.022;4.692;2022-12-20T03:31:37;101229.72;;;9.82;100.00
12247;BME280;6186;52.022;4.692;2022-12-20T03:34:03;101220.94;;;9.85;100.00
12247;BME280;6186;52.022;4.692;2022-12-20T03:36:29;101209.66;;;9.77;100.00
12247;BME280;6186;52.022;4.692;2022-12-20T03:38:55;101213.16;;;9.77;100.00
12247;BME280;6186;52.022;4.692;2022-12-20T03:41:21;101217.44;;;9.83;100.00
12247;BME280;6186;52.022;4.692;2022-12-20T03:43:48;101219.22;;;9.81;100.00
12247;BME280;6186;52.022;4.692;2022-12-20T03:46:13;101212.19;;;9.83;100.00
12247;BME280;6186;52.022;4.692;2022-12-20T03:48:39;101190.50;;;9.70;100.00
12247;BME280;6186;52.022;4.692;2022-12-20T03:51:05;101199.09;;;9.80;100.00
12247;BME280;6186;52.022;4.692;2022-12-20T03:53:30;101225.38;;;9.81;100.00
12247;BME280;6186;52.022;4.692;2022-12-20T03:55:56;101217.44;;;9.83;100.00
12247;BME280;6186;52.022;4.692;2022-12-20T03:58:21;101220.03;;;9.84;100.00
12247;BME280;6186;52.022;4.692;2022-12-20T04:00:47;101223.53;;;9.86;100.00
12247;BME280;6186;52.022;4.692;2022-12-20T04:03:12;101207.75;;;9.88;100.00
12247;BME280;6186;52.022;4.692;2022-12-20T04:05:38;101221.63;;;9.97;100.00
12247;BME280;6186;52.022;4.692;2022-12-20T04:08:03;101214.47;;;10.04;100.00
12247;BME280;6186;52.022;4.692;2022-12-20T04:10:28;101215.28;;;10.10;100.00
12247;BME280;6186;52.022;4.692;2022-12-20T04:12:54;101206.41;;;10.16;100.00
12247;BME280;6186;52.022;4.692;2022-12-20T04:15:19;101207.16;;;10.22;100.00
12247;BME280;6186;52.022;4.692;2022-12-20T04:17:44;101209.72;;;10.27;100.00
12247;BME280;6186;52.022;4.692;2022-12-20T04:20:13;101204.34;;;10.33;100.00
12247;BME280;6186;52.022;4.692;2022-12-20T04:22:46;101198.94;;;10.39;100.00
12247;BME280;6186;52.022;4.692;2022-12-20T04:25:12;101198.00;;;10.45;100.00
12247;BME280;6186;52.022;4.692;2022-12-20T04:27:37;101198.78;;;10.48;100.00
12247;BME280;6186;52.022;4.692;2022-12-20T04:30:03;101199.63;;;10.50;100.00
12247;BME280;6186;52.022;4.692;2022-12-20T04:32:28;101196.06;;;10.53;100.00
12247;BME280;6186;52.022;4.692;2022-12-20T04:34:53;101200.34;;;10.58;100.00
12247;BME280;6186;52.022;4.692;2022-12-20T04:37:19;101207.31;;;10.61;100.00
12247;BME280;6186;52.022;4.692;2022-12-20T04:39:44;101203.75;;;10.63;100.00
12247;BME280;6186;52.022;4.692;2022-12-20T04:42:09;101174.97;;;10.56;100.00
12247;BME280;6186;52.022;4.692;2022-12-20T04:44:35;101197.50;;;10.69;100.00
12247;BME280;6186;52.022;4.692;2022-12-20T04:47:00;101201.81;;;10.71;100.00
12247;BME280;6186;52.022;4.692;2022-12-20T04:49:25;101181.59;;;10.73;100.00
12247;BME280;6186;52.022;4.692;2022-12-20T04:51:51;101178.09;;;10.74;100.00
12247;BME280;6186;52.022;4.692;2022-12-20T04:54:16;101175.44;;;10.74;100.00
12247;BME280;6186;52.022;4.692;2022-12-20T04:56:41;101171.09;;;10.72;100.00
12247;BME280;6186;52.022;4.692;2022-12-20T04:59:06;101173.66;;;10.76;100.00
12247;BME280;6186;52.022;4.692;2022-12-20T05:01:32;101157.94;;;10.72;100.00
12247;BME280;6186;52.022;4.692;2022-12-20T05:03:57;101171.88;;;10.78;100.00
12247;BME280;6186;52.022;4.692;2022-12-20T05:06:23;101154.31;;;10.77;100.00
12247;BME280;6186;52.022;4.692;2022-12-20T05:08:48;101160.44;;;10.78;100.00
12247;BME280;6186;52.022;4.692;2022-12-20T05:11:13;101159.53;;;10.79;100.00
12247;BME280;6186;52.022;4.692;2022-12-20T05:13:39;101149.03;;;10.77;100.00
12247;BME280;6186;52.022;4.692;2022-12-20T05:16:05;101148.22;;;10.77;100.00
12247;BME280;6186;52.022;4.692;2022-12-20T05:18:30;101122.88;;;10.70;100.00
12247;BME280;6186;52.022;4.692;2022-12-20T05:20:58;101126.31;;;10.73;100.00
12247;BME280;6186;52.022;4.692;2022-12-20T05:23:43;101126.38;;;10.70;100.00
12247;BME280;6186;52.022;4.692;2022-12-20T05:26:29;101132.44;;;10.74;100.00
12247;BME280;6186;52.022;4.692;2022-12-20T05:28:55;101126.31;;;10.73;100.00
12247;BME280;6186;52.022;4.692;2022-12-20T05:31:20;101118.44;;;10.72;100.00
12247;BME280;6186;52.022;4.692;2022-12-20T05:33:46;101132.50;;;10.72;100.00
12247;BME280;6186;52.022;4.692;2022-12-20T05:36:11;101123.69;;;10.73;100.00
12247;BME280;6186;52.022;4.692;2022-12-20T05:38:37;101125.47;;;10.73;100.00
12247;BME280;6186;52.022;4.692;2022-12-20T05:41:02;101125.47;;;10.73;100.00
12247;BME280;6186;52.022;4.692;2022-12-20T05:43:29;101122.84;;;10.71;100.00
12247;BME280;6186;52.022;4.692;2022-12-20T05:45:54;101129.81;;;10.74;100.00
12247;BME280;6186;52.022;4.692;2022-12-20T05:48:19;101128.94;;;10.73;100.00
12247;BME280;6186;52.022;4.692;2022-12-20T05:50:45;101128.06;;;10.74;100.00
12247;BME280;6186;52.022;4.692;2022-12-20T05:53:15;101128.06;;;10.74;100.00
12247;BME280;6186;52.022;4.692;2022-12-20T05:55:43;101117.56;;;10.71;100.00
12247;BME280;6186;52.022;4.692;2022-12-20T05:58:09;101115.91;;;10.69;100.00
12247;BME280;6186;52.022;4.692;2022-12-20T06:00:38;101124.56;;;10.74;100.00
12247;BME280;6186;52.022;4.692;2022-12-20T06:03:05;101124.66;;;10.69;100.00
12247;BME280;6186;52.022;4.692;2022-12-20T06:05:30;101123.69;;;10.73;100.00
12247;BME280;6186;52.022;4.692;2022-12-20T06:07:56;101122.00;;;10.71;100.00
12247;BME280;6186;52.022;4.692;2022-12-20T06:10:22;101129.81;;;10.74;100.00
12247;BME280;6186;52.022;4.692;2022-12-20T06:12:48;101122.78;;;10.74;100.00
12247;BME280;6186;52.022;4.692;2022-12-20T06:15:14;101108.78;;;10.72;100.00
12247;BME280;6186;52.022;4.692;2022-12-20T06:17:39;101107.03;;;10.71;100.00
12247;BME280;6186;52.022;4.692;2022-12-20T06:20:05;101109.66;;;10.73;100.00
12247;BME280;6186;52.022;4.692;2022-12-20T06:22:31;101100.16;;;10.66;100.00
12247;BME280;6186;52.022;4.692;2022-12-20T06:24:57;101100.19;;;10.64;100.00
12247;BME280;6186;52.022;4.692;2022-12-20T06:27:22;101110.66;;;10.67;100.00
12247;BME280;6186;52.022;4.692;2022-12-20T06:29:47;101111.56;;;10.66;100.00
12247;BME280;6186;52.022;4.692;2022-12-20T06:32:16;101110.72;;;10.64;100.00
12247;BME280;6186;52.022;4.692;2022-12-20T06:34:43;101119.53;;;10.63;100.00
12247;BME280;6186;52.022;4.692;2022-12-20T06:37:08;101114.25;;;10.63;100.00
12247;BME280;6186;52.022;4.692;2022-12-20T06:39:33;101121.31;;;10.61;100.00
12247;BME280;6186;52.022;4.692;2022-12-20T06:41:59;101122.19;;;10.60;100.00
12247;BME280;6186;52.022;4.692;2022-12-20T06:44:24;101124.84;;;10.60;100.00
12247;BME280;6186;52.022;4.692;2022-12-20T06:46:49;101112.59;;;10.59;100.00
12247;BME280;6186;52.022;4.692;2022-12-20T06:49:14;101116.97;;;10.59;100.00
12247;BME280;6186;52.022;4.692;2022-12-20T06:51:40;101110.00;;;10.58;100.00
12247;BME280;6186;52.022;4.692;2022-12-20T06:54:05;101108.25;;;10.57;100.00
12247;BME280;6186;52.022;4.692;2022-12-20T06:56:30;101107.38;;;10.56;100.00
12247;BME280;6186;52.022;4.692;2022-12-20T06:58:56;101097.13;;;10.44;100.00
12247;BME280;6186;52.022;4.692;2022-12-20T07:01:21;101118.78;;;10.57;100.00
12247;BME280;6186;52.022;4.692;2022-12-20T07:03:46;101110.00;;;10.56;100.00
12247;BME280;6186;52.022;4.692;2022-12-20T07:06:12;101111.75;;;10.57;100.00
12247;BME280;6186;52.022;4.692;2022-12-20T07:08:37;101110.88;;;10.57;100.00
12247;BME280;6186;52.022;4.692;2022-12-20T07:11:06;101111.78;;;10.54;100.00
12247;BME280;6186;52.022;4.692;2022-12-20T07:13:32;101114.34;;;10.59;100.00
12247;BME280;6186;52.022;4.692;2022-12-20T07:15:59;101124.00;;;10.60;100.00
12247;BME280;6186;52.022;4.692;2022-12-20T07:18:25;101132.72;;;10.60;100.00
12247;BME280;6186;52.022;4.692;2022-12-20T07:20:50;101126.59;;;10.61;100.00
12247;BME280;6186;52.022;4.692;2022-12-20T07:23:15;101121.28;;;10.63;100.00
12247;BME280;6186;52.022;4.692;2022-12-20T07:25:41;101123.00;;;10.65;100.00
12247;BME280;6186;52.022;4.692;2022-12-20T07:28:06;101123.03;;;10.62;100.00
12247;BME280;6186;52.022;4.692;2022-12-20T07:30:31;101128.19;;;10.68;100.00
12247;BME280;6186;52.022;4.692;2022-12-20T07:32:57;101129.06;;;10.69;100.00
12247;BME280;6186;52.022;4.692;2022-12-20T07:35:22;101124.66;;;10.69;100.00
12247;BME280;6186;52.022;4.692;2022-12-20T07:37:48;101133.44;;;10.68;100.00
12247;BME280;6186;52.022;4.692;2022-12-20T07:40:13;101124.66;;;10.69;100.00
12247;BME280;6186;52.022;4.692;2022-12-20T07:42:40;101124.66;;;10.69;100.00
12247;BME280;6186;52.022;4.692;2022-12-20T07:45:06;101118.53;;;10.69;100.00
12247;BME280;6186;52.022;4.692;2022-12-20T07:47:31;101122.00;;;10.71;100.00
12247;BME280;6186;52.022;4.692;2022-12-20T07:49:56;101111.47;;;10.71;100.00
12247;BME280;6186;52.022;4.692;2022-12-20T07:52:24;101122.84;;;10.71;100.00
12247;BME280;6186;52.022;4.692;2022-12-20T07:54:55;101115.94;;;10.67;100.00
12247;BME280;6186;52.022;4.692;2022-12-20T07:57:28;101119.38;;;10.71;100.00
12247;BME280;6186;52.022;4.692;2022-12-20T07:59:56;101115.84;;;10.70;100.00
12247;BME280;6186;52.022;4.692;2022-12-20T08:02:27;101116.72;;;10.71;100.00
12247;BME280;6186;52.022;4.692;2022-12-20T08:04:55;101115.84;;;10.70;100.00
12247;BME280;6186;52.022;4.692;2022-12-20T08:07:20;101121.13;;;10.70;100.00
12247;BME280;6186;52.022;4.692;2022-12-20T08:09:46;101128.16;;;10.70;100.00
12247;BME280;6186;52.022;4.692;2022-12-20T08:12:14;101124.66;;;10.69;100.00
12247;BME280;6186;52.022;4.692;2022-12-20T08:14:40;101126.47;;;10.67;100.00
12247;BME280;6186;52.022;4.692;2022-12-20T08:17:06;101128.22;;;10.67;100.00
12247;BME280;6186;52.022;4.692;2022-12-20T08:19:31;101129.09;;;10.66;100.00
12247;BME280;6186;52.022;4.692;2022-12-20T08:21:56;101117.72;;;10.65;100.00
12247;BME280;6186;52.022;4.692;2022-12-20T08:24:22;101120.38;;;10.64;100.00
12247;BME280;6186;52.022;4.692;2022-12-20T08:26:47;101112.47;;;10.65;100.00
12247;BME280;6186;52.022;4.692;2022-12-20T08:29:12;101115.09;;;10.65;100.00
12247;BME280;6186;52.022;4.692;2022-12-20T08:31:39;101106.41;;;10.60;100.00
12247;BME280;6186;52.022;4.692;2022-12-20T08:34:06;101126.50;;;10.64;100.00
12247;BME280;6186;52.022;4.692;2022-12-20T08:36:32;101116.94;;;10.62;100.00
12247;BME280;6186;52.022;4.692;2022-12-20T08:38:57;101121.22;;;10.66;100.00
12247;BME280;6186;52.022;4.692;2022-12-20T08:41:22;101123.84;;;10.66;100.00
12247;BME280;6186;52.022;4.692;2022-12-20T08:43:48;101123.84;;;10.66;100.00
12247;BME280;6186;52.022;4.692;2022-12-20T08:46:13;101116.81;;;10.66;100.00
12247;BME280;6186;52.022;4.692;2022-12-20T08:48:39;101117.72;;;10.64;100.00
12247;BME280;6186;52.022;4.692;2022-12-20T08:51:09;101122.91;;;10.68;100.00
12247;BME280;6186;52.022;4.692;2022-12-20T08:53:35;101125.50;;;10.70;100.00
12247;BME280;6186;52.022;4.692;2022-12-20T08:56:05;101121.13;;;10.70;100.00
12247;BME280;6186;52.022;4.692;2022-12-20T08:58:31;101126.38;;;10.70;100.00
12247;BME280;6186;52.022;4.692;2022-12-20T09:01:00;101128.09;;;10.71;100.00
12247;BME280;6186;52.022;4.692;2022-12-20T09:03:28;101126.31;;;10.73;100.00
12247;BME280;6186;52.022;4.692;2022-12-20T09:05:54;101121.91;;;10.74;100.00
12247;BME280;6186;52.022;4.692;2022-12-20T09:08:19;101123.66;;;10.75;100.00
12247;BME280;6186;52.022;4.692;2022-12-20T09:10:44;101124.56;;;10.74;100.00
12247;BME280;6186;52.022;4.692;2022-12-20T09:13:10;101132.41;;;10.75;100.00
12247;BME280;6186;52.022;4.692;2022-12-20T09:15:35;101131.56;;;10.75;100.00
12247;BME280;6186;52.022;4.692;2022-12-20T09:18:01;101125.38;;;10.76;100.00
12247;BME280;6186;52.022;4.692;2022-12-20T09:20:28;101128.06;;;10.74;100.00
12247;BME280;6186;52.022;4.692;2022-12-20T09:22:53;101128.97;;;10.72;100.00
12247;BME280;6186;52.022;4.692;2022-12-20T09:25:19;101139.47;;;10.73;100.00
12247;BME280;6186;52.022;4.692;2022-12-20T09:27:44;101132.50;;;10.72;100.00
12247;BME280;6186;52.022;4.692;2022-12-20T09:30:10;101124.50;;;10.75;100.00
12247;BME280;6186;52.022;4.692;2022-12-20T09:32:35;101122.75;;;10.76;100.00
12247;BME280;6186;52.022;4.692;2022-12-20T09:35:01;101121.91;;;10.74;100.00
12247;BME280;6186;52.022;4.692;2022-12-20T09:37:29;101121.91;;;10.74;100.00
12247;BME280;6186;52.022;4.692;2022-12-20T09:39:55;101133.25;;;10.77;100.00
12247;BME280;6186;52.022;4.692;2022-12-20T09:42:24;101125.31;;;10.79;100.00
12247;BME280;6186;52.022;4.692;2022-12-20T09:44:51;101127.94;;;10.80;100.00
12247;BME280;6186;52.022;4.692;2022-12-20T09:47:22;101127.94;;;10.80;100.00
12247;BME280;6186;52.022;4.692;2022-12-20T09:49:51;101131.41;;;10.82;100.00
12247;BME280;6186;52.022;4.692;2022-12-20T09:52:44;101133.13;;;10.83;100.00
12247;BME280;6186;52.022;4.692;2022-12-20T09:57:51;101128.72;;;10.84;100.00
12247;BME280;6186;52.022;4.692;2022-12-20T10:00:20;101131.38;;;10.84;100.00
12247;BME280;6186;52.022;4.692;2022-12-20T10:02:46;101117.44;;;10.77;100.00
12247;BME280;6186;52.022;4.692;2022-12-20T10:05:15;101124.34;;;10.84;100.00
12247;BME280;6186;52.022;4.692;2022-12-20T10:08:08;101121.75;;;10.81;100.00
12247;BME280;6186;52.022;4.692;2022-12-20T10:10:48;101133.97;;;10.85;100.00
12247;BME280;6186;52.022;4.692;2022-12-20T10:13:22;101132.19;;;10.86;100.00
12247;BME280;6186;52.022;4.692;2022-12-20T10:15:50;101120.78;;;10.85;100.00
12247;BME280;6186;52.022;4.692;2022-12-20T10:24:11;101118.16;;;10.85;100.00
12247;BME280;6186;52.022;4.692;2022-12-20T10:26:37;101117.25;;;10.86;100.00
12247;BME280;6186;52.022;4.692;2022-12-20T10:29:03;101119.00;;;10.87;100.00
12247;BME280;6186;52.022;4.692;2022-12-20T10:31:28;101113.72;;;10.87;100.00
12247;BME280;6186;52.022;4.692;2022-12-20T10:33:53;101114.59;;;10.88;100.00
12247;BME280;6186;52.022;4.692;2022-12-20T10:36:28;101104.91;;;10.88;100.00
12247;BME280;6186;52.022;4.692;2022-12-20T10:39:02;101116.38;;;10.87;100.00
12247;BME280;6186;52.022;4.692;2022-12-20T10:46:42;101108.38;;;10.90;100.00
12247;BME280;6186;52.022;4.692;2022-12-20T10:49:25;101101.41;;;10.89;100.00
12247;BME280;6186;52.022;4.692;2022-12-20T10:51:53;101107.53;;;10.90;100.00
12247;BME280;6186;52.022;4.692;2022-12-20T10:54:28;101110.16;;;10.90;100.00
12247;BME280;6186;52.022;4.692;2022-12-20T10:56:57;101118.91;;;10.90;100.00
12247;BME280;6186;52.022;4.692;2022-12-20T10:59:30;101108.38;;;10.90;100.00
12247;BME280;6186;52.022;4.692;2022-12-20T11:01:57;101101.34;;;10.91;100.00
12247;BME280;6186;52.022;4.692;2022-12-20T11:04:33;101104.00;;;10.91;100.00
12247;BME280;6186;52.022;4.692;2022-12-20T11:07:01;101099.59;;;10.91;100.00
12247;BME280;6186;52.022;4.692;2022-12-20T11:09:36;101099.59;;;10.91;100.00
12247;BME280;6186;52.022;4.692;2022-12-20T11:12:15;101103.09;;;10.92;100.00
12247;BME280;6186;52.022;4.692;2022-12-20T11:14:45;101096.03;;;10.92;100.00
12247;BME280;6186;52.022;4.692;2022-12-20T11:17:44;101091.63;;;10.94;100.00
12247;BME280;6186;52.022;4.692;2022-12-20T11:20:37;101098.63;;;10.95;100.00
12247;BME280;6186;52.022;4.692;2022-12-20T11:31:39;101083.66;;;10.97;100.00
12247;BME280;6186;52.022;4.692;2022-12-20T11:42:41;101087.13;;;10.99;100.00
12247;BME280;6186;52.022;4.692;2022-12-20T11:51:01;101077.44;;;11.01;100.00
12247;BME280;6186;52.022;4.692;2022-12-20T11:53:33;101085.31;;;11.01;100.00
12247;BME280;6186;52.022;4.692;2022-12-20T11:56:18;101085.31;;;11.01;100.00
12247;BME280;6186;52.022;4.692;2022-12-20T12:01:48;101070.31;;;11.03;100.00
12247;BME280;6186;52.022;4.692;2022-12-20T12:04:23;101071.19;;;11.04;100.00
12247;BME280;6186;52.022;4.692;2022-12-20T12:07:15;101072.94;;;11.05;100.00
12247;BME280;6186;52.022;4.692;2022-12-20T12:09:51;101073.78;;;11.05;100.00
12247;BME280;6186;52.022;4.692;2022-12-20T12:12:33;101072.03;;;11.06;100.00
12247;BME280;6186;52.022;4.692;2022-12-20T12:15:15;101071.09;;;11.08;100.00
12247;BME280;6186;52.022;4.692;2022-12-20T12:17:51;101074.63;;;11.09;100.00
12247;BME280;6186;52.022;4.692;2022-12-20T12:23:29;101075.44;;;11.09;100.00
12247;BME280;6186;52.022;4.692;2022-12-20T12:26:04;101076.31;;;11.10;100.00
12247;BME280;6186;52.022;4.692;2022-12-20T12:28:32;101070.13;;;11.12;100.00
12247;BME280;6186;52.022;4.692;2022-12-20T12:31:10;101077.13;;;11.13;100.00
12247;BME280;6186;52.022;4.692;2022-12-20T12:33:59;101074.47;;;11.13;100.00
12247;BME280;6186;52.022;4.692;2022-12-20T12:42:57;101076.22;;;11.14;100.00
12247;BME280;6186;52.022;4.692;2022-12-20T12:45:39;101072.72;;;11.14;100.00
12247;BME280;6186;52.022;4.692;2022-12-20T12:48:32;101076.22;;;11.14;100.00
12247;BME280;6186;52.022;4.692;2022-12-20T12:51:00;101079.72;;;11.15;100.00
12247;BME280;6186;52.022;4.692;2022-12-20T12:53:36;101071.81;;;11.15;100.00
12247;BME280;6186;52.022;4.692;2022-12-20T13:02:21;101081.47;;;11.16;100.00
12247;BME280;6186;52.022;4.692;2022-12-20T13:12:59;101065.75;;;11.11;100.00
12247;BME280;6186;52.022;4.692;2022-12-20T13:20:23;101066.72;;;11.09;100.00
12247;BME280;6186;52.022;4.692;2022-12-20T13:25:43;101085.03;;;11.13;100.00
12247;BME280;6186;52.022;4.692;2022-12-20T13:38:38;101066.56;;;11.13;100.00
12247;BME280;6186;52.022;4.692;2022-12-20T13:41:34;101069.16;;;11.15;100.00
12247;BME280;6186;52.022;4.692;2022-12-20T13:49:41;101060.44;;;11.14;100.00
12247;BME280;6186;52.022;4.692;2022-12-20T13:54:39;101048.94;;;11.17;100.00
12247;BME280;6186;52.022;4.692;2022-12-20T13:57:06;101052.44;;;11.17;100.00
12247;BME280;6186;52.022;4.692;2022-12-20T13:59:33;101055.06;;;11.17;100.00
12247;BME280;6186;52.022;4.692;2022-12-20T14:02:01;101060.44;;;11.14;100.00
12247;BME280;6186;52.022;4.692;2022-12-20T14:04:42;101062.97;;;11.17;100.00
12247;BME280;6186;52.022;4.692;2022-12-20T14:07:14;101070.88;;;11.17;100.00
12247;BME280;6186;52.022;4.692;2022-12-20T14:09:44;101063.03;;;11.16;100.00
12247;BME280;6186;52.022;4.692;2022-12-20T14:12:14;101063.94;;;11.13;100.00
12247;BME280;6186;52.022;4.692;2022-12-20T14:14:45;101070.09;;;11.14;100.00
12247;BME280;6186;52.022;4.692;2022-12-20T14:19:40;101065.69;;;11.14;100.00
12247;BME280;6186;52.022;4.692;2022-12-20T14:22:09;101074.47;;;11.13;100.00
12247;BME280;6186;52.022;4.692;2022-12-20T14:24:38;101070.13;;;11.11;100.00
12247;BME280;6186;52.022;4.692;2022-12-20T14:27:10;101071.06;;;11.10;100.00
12247;BME280;6186;52.022;4.692;2022-12-20T14:29:36;101074.47;;;11.13;100.00
12247;BME280;6186;52.022;4.692;2022-12-20T14:32:03;101079.75;;;11.13;100.00
12247;BME280;6186;52.022;4.692;2022-12-20T14:34:31;101072.75;;;11.12;100.00
12247;BME280;6186;52.022;4.692;2022-12-20T14:37:33;101071.84;;;11.13;100.00
12247;BME280;6186;52.022;4.692;2022-12-20T14:40:15;101076.22;;;11.14;100.00
12247;BME280;6186;52.022;4.692;2022-12-20T14:42:42;101063.16;;;11.10;100.00
12247;BME280;6186;52.022;4.692;2022-12-20T14:48:14;101041.38;;;11.02;100.00